Terminal Aerodrome Forecast
Issued by NWS

Home | Current Version | Previous Version | Text Only | Print | Product List | Glossary On
Versions: 1 2 3 4 5 6 7 8 9 10 11 12 13 14 15 16 17 18 19 20 21 22 23 24 25 26 27 28 29 30 31 32 33 34 35 36 37 38 39 40 41 42 43 44 45 46 47 48 49 50
066
FTUS44 KLIX 172342
TAFASD
TAF
KASD 172342Z 1800/1824 17005KT P6SM SCT020 OVC250
     FM180300 15004KT 5SM BR BKN020
     FM180500 15004KT 2SM BR OVC004
     FM180800 VRB03KT 1/4SM FG VV002
     FM181600 16005KT 2SM BR OVC005
     FM181700 16005KT P6SM BKN008
     FM182100 15005KT P6SM VCSH BKN025=

USA.gov is the U.S. government's official web portal to all federal, state and local government web resources and services.